createdAt,value
2023-03-13T00:01:35.055Z,3.60
2023-03-13T00:04:02.739Z,3.33
2023-03-13T00:06:40.565Z,3.60
2023-03-13T00:09:11.538Z,3.60
2023-03-13T00:11:38.489Z,3.47
2023-03-13T00:14:07.021Z,2.87
2023-03-13T00:16:37.559Z,3.00
2023-03-13T00:19:06.981Z,3.30
2023-03-13T00:21:34.560Z,3.40
2023-03-13T00:24:01.824Z,3.00
2023-03-13T00:26:32.266Z,2.73
2023-03-13T00:29:02.386Z,4.53
2023-03-13T00:31:35.470Z,3.70
2023-03-13T00:34:04.225Z,2.83
2023-03-13T00:36:36.094Z,3.53
2023-03-13T00:39:06.298Z,3.10
2023-03-13T00:41:35.950Z,2.80
2023-03-13T00:44:06.192Z,3.40
2023-03-13T00:46:33.189Z,2.70
2023-03-13T00:49:00.115Z,2.70
2023-03-13T00:51:28.317Z,3.00
2023-03-13T00:54:03.877Z,3.07
2023-03-13T00:56:30.675Z,2.63
2023-03-13T00:58:59.212Z,3.17
2023-03-13T01:01:32.855Z,3.70
2023-03-13T01:04:07.722Z,3.60
2023-03-13T01:06:44.725Z,3.70
2023-03-13T01:09:15.653Z,2.87
2023-03-13T01:11:44.971Z,3.87
2023-03-13T01:14:20.469Z,3.00
2023-03-13T01:16:47.505Z,4.17
2023-03-13T01:19:17.986Z,2.80
2023-03-13T01:21:45.784Z,3.47
2023-03-13T01:24:13.045Z,3.70
2023-03-13T01:26:40.096Z,2.80
2023-03-13T01:29:06.864Z,3.30
2023-03-13T01:31:38.221Z,3.00
2023-03-13T01:34:06.701Z,3.80
2023-03-13T01:36:36.694Z,3.37
2023-03-13T01:39:04.933Z,3.63
2023-03-13T01:41:35.052Z,2.93
2023-03-13T01:44:01.878Z,3.47
2023-03-13T01:46:30.422Z,3.47
2023-03-13T01:49:33.222Z,4.20
2023-03-13T01:52:05.880Z,3.13
2023-03-13T01:54:51.767Z,2.90
2023-03-13T01:57:25.609Z,3.37
2023-03-13T02:00:26.736Z,3.33
2023-03-13T02:03:07.092Z,3.20
2023-03-13T02:05:35.330Z,4.50
2023-03-13T02:08:10.252Z,3.13
2023-03-13T02:10:58.682Z,3.70
2023-03-13T02:13:26.267Z,3.53
2023-03-13T02:15:55.481Z,4.07
2023-03-13T02:18:22.501Z,3.47
2023-03-13T02:20:55.275Z,4.10
2023-03-13T02:23:47.157Z,3.97
2023-03-13T02:26:19.870Z,3.63
2023-03-13T02:28:47.649Z,4.40
2023-03-13T02:31:14.529Z,3.93
2023-03-13T02:33:47.519Z,4.43
2023-03-13T02:36:17.734Z,4.60
2023-03-13T02:38:55.100Z,4.80
2023-03-13T02:41:24.534Z,4.80
2023-03-13T02:43:51.334Z,4.33
2023-03-13T02:46:21.283Z,4.80
2023-03-13T02:48:52.775Z,4.80
2023-03-13T02:51:31.236Z,5.30
2023-03-13T02:54:10.452Z,5.67
2023-03-13T02:56:41.892Z,5.22
2023-03-13T02:59:08.661Z,7.70
2023-03-13T03:01:35.431Z,5.37
2023-03-13T03:04:02.172Z,5.40
2023-03-13T03:06:28.968Z,5.10
2023-03-13T03:08:58.865Z,4.95
2023-03-13T03:11:25.619Z,5.40
2023-03-13T03:13:52.354Z,4.33
2023-03-13T03:16:19.171Z,4.63
2023-03-13T03:18:46.142Z,5.20
2023-03-13T03:21:13.534Z,4.65
2023-03-13T03:23:40.321Z,4.60
2023-03-13T03:26:07.862Z,4.00
2023-03-13T03:28:37.674Z,5.28
2023-03-13T03:31:13.824Z,4.25
2023-03-13T03:33:46.622Z,4.05
2023-03-13T03:36:20.846Z,3.50
2023-03-13T03:38:48.527Z,3.83
2023-03-13T03:41:19.329Z,3.90
2023-03-13T03:43:47.524Z,3.80
2023-03-13T03:46:17.890Z,2.92
2023-03-13T03:48:46.833Z,3.40
2023-03-13T03:51:13.694Z,3.60
2023-03-13T03:53:40.621Z,3.20
2023-03-13T03:56:09.056Z,3.05
2023-03-13T03:58:37.883Z,3.17
2023-03-13T04:01:05.244Z,3.42
2023-03-13T04:03:32.692Z,3.45
2023-03-13T04:05:59.533Z,3.97
2023-03-13T04:08:26.581Z,3.13
2023-03-13T04:10:53.404Z,3.25
2023-03-13T04:13:20.206Z,3.13
2023-03-13T04:15:48.760Z,3.10
2023-03-13T04:18:21.649Z,3.15
2023-03-13T04:20:48.411Z,3.05
2023-03-13T04:23:15.161Z,3.08
2023-03-13T04:25:42.008Z,3.30
2023-03-13T04:28:09.293Z,3.33
2023-03-13T04:30:36.110Z,3.40
2023-03-13T04:33:02.985Z,3.65
2023-03-13T04:35:29.895Z,2.53
2023-03-13T04:37:56.655Z,3.53
2023-03-13T04:40:23.448Z,3.70
2023-03-13T04:42:50.170Z,4.05
2023-03-13T04:45:16.956Z,3.90
2023-03-13T04:47:43.683Z,3.40
2023-03-13T04:50:10.844Z,3.53
2023-03-13T04:52:37.691Z,3.67
2023-03-13T04:55:06.628Z,3.92
2023-03-13T04:57:33.389Z,4.82
2023-03-13T05:00:00.191Z,3.42
2023-03-13T05:02:27.057Z,3.45
2023-03-13T05:04:56.495Z,3.60
2023-03-13T05:07:23.215Z,2.72
2023-03-13T05:09:49.959Z,3.15
2023-03-13T05:12:28.745Z,3.00
2023-03-13T05:14:55.598Z,3.10
2023-03-13T05:17:22.368Z,2.75
2023-03-13T05:19:49.175Z,3.05
2023-03-13T05:22:15.882Z,2.78
2023-03-13T05:24:43.721Z,2.63
2023-03-13T05:27:13.381Z,3.22
2023-03-13T05:29:40.193Z,2.78
2023-03-13T05:32:12.973Z,2.50
2023-03-13T05:34:46.848Z,3.20
2023-03-13T05:37:13.812Z,2.78
2023-03-13T05:39:43.852Z,2.80
2023-03-13T05:42:10.611Z,2.58
2023-03-13T05:44:40.254Z,2.28
2023-03-13T05:47:07.127Z,2.20
2023-03-13T05:49:33.913Z,2.40
2023-03-13T05:52:03.068Z,2.08
2023-03-13T05:54:32.909Z,2.22
2023-03-13T05:56:59.647Z,2.35
2023-03-13T05:59:29.483Z,2.13
2023-03-13T06:01:56.266Z,2.58
2023-03-13T06:04:23.177Z,2.72
2023-03-13T06:06:49.973Z,2.17
2023-03-13T06:09:16.778Z,2.08
2023-03-13T06:11:45.534Z,2.00
2023-03-13T06:14:12.416Z,2.28
2023-03-13T06:16:39.290Z,2.05
2023-03-13T06:19:06.105Z,1.77
2023-03-13T06:21:35.951Z,2.65
2023-03-13T06:24:02.797Z,2.97
2023-03-13T06:26:32.438Z,2.17
2023-03-13T06:28:59.281Z,1.90
2023-03-13T06:31:32.540Z,2.10
2023-03-13T06:33:59.396Z,1.88
2023-03-13T06:36:26.467Z,2.40
2023-03-13T06:38:53.242Z,2.00
2023-03-13T06:41:20.082Z,2.60
2023-03-13T06:43:46.849Z,2.13
2023-03-13T06:46:20.474Z,2.17
2023-03-13T06:48:47.470Z,2.00
2023-03-13T06:51:21.863Z,2.10
2023-03-13T06:53:52.451Z,1.88
2023-03-13T06:56:22.484Z,2.42
2023-03-13T06:58:50.050Z,1.90
2023-03-13T07:01:20.056Z,2.08
2023-03-13T07:03:49.047Z,1.92
2023-03-13T07:06:21.980Z,2.00
2023-03-13T07:08:51.737Z,2.67
2023-03-13T07:11:18.924Z,2.45
2023-03-13T07:13:45.680Z,2.15
2023-03-13T07:16:16.425Z,2.50
2023-03-13T07:18:44.700Z,2.40
2023-03-13T07:21:11.968Z,2.13
2023-03-13T07:23:39.250Z,2.47
2023-03-13T07:26:14.954Z,3.15
2023-03-13T07:28:42.756Z,2.38
2023-03-13T07:31:15.434Z,2.20
2023-03-13T07:33:45.486Z,2.15
2023-03-13T07:36:15.008Z,1.90
2023-03-13T07:38:43.803Z,2.85
2023-03-13T07:41:13.632Z,2.28
2023-03-13T07:43:41.204Z,2.42
2023-03-13T07:46:12.625Z,2.30
2023-03-13T07:48:42.476Z,2.60
2023-03-13T07:51:33.357Z,6.25
2023-03-13T07:54:07.840Z,4.57
2023-03-13T07:56:34.579Z,6.65
2023-03-13T07:59:01.396Z,4.50
2023-03-13T08:01:31.572Z,2.97
2023-03-13T08:04:01.618Z,2.05
2023-03-13T08:06:33.884Z,1.85
2023-03-13T08:09:18.642Z,4.07
2023-03-13T08:11:45.483Z,2.05
2023-03-13T08:14:12.976Z,1.83
2023-03-13T08:16:39.853Z,2.25
2023-03-13T08:19:10.836Z,2.05
2023-03-13T08:21:38.591Z,2.05
2023-03-13T08:24:14.766Z,2.00
2023-03-13T08:26:42.778Z,2.40
2023-03-13T08:29:13.666Z,1.75
2023-03-13T08:31:52.620Z,1.77
2023-03-13T08:34:20.291Z,1.90
2023-03-13T08:36:50.188Z,1.98
2023-03-13T08:39:19.755Z,2.15
2023-03-13T08:41:47.233Z,2.13
2023-03-13T08:44:17.222Z,1.90
2023-03-13T08:46:47.613Z,1.92
2023-03-13T08:49:14.437Z,2.00
2023-03-13T08:51:41.254Z,1.98
2023-03-13T08:54:08.225Z,1.60
2023-03-13T08:56:37.572Z,3.08
2023-03-13T08:59:06.944Z,1.90
2023-03-13T09:01:36.355Z,1.48
2023-03-13T09:04:05.299Z,1.67
2023-03-13T09:06:34.695Z,1.70
2023-03-13T09:09:06.671Z,1.83
2023-03-13T09:11:46.718Z,2.58
2023-03-13T09:14:13.533Z,1.70
2023-03-13T09:16:40.509Z,1.80
2023-03-13T09:19:07.482Z,2.00
2023-03-13T09:21:35.704Z,2.72
2023-03-13T09:24:02.934Z,2.97
2023-03-13T09:26:30.238Z,1.45
2023-03-13T09:28:57.717Z,1.30
2023-03-13T09:31:33.402Z,1.73
2023-03-13T09:34:01.252Z,2.40
2023-03-13T09:36:30.626Z,1.45
2023-03-13T09:38:59.773Z,1.35
2023-03-13T09:42:20.438Z,1.85
2023-03-13T09:45:04.018Z,1.23
2023-03-13T09:47:44.485Z,1.50
2023-03-13T09:50:27.601Z,1.65
2023-03-13T09:53:03.385Z,2.20
2023-03-13T09:55:36.635Z,1.65
2023-03-13T09:58:12.220Z,1.30
2023-03-13T10:00:41.621Z,2.00
2023-03-13T10:03:11.483Z,2.10
2023-03-13T10:05:46.800Z,1.30
2023-03-13T10:08:19.511Z,0.80
2023-03-13T10:11:11.121Z,1.08
2023-03-13T10:14:11.158Z,1.35
2023-03-13T10:17:23.383Z,0.98
2023-03-13T10:20:01.062Z,0.90
2023-03-13T10:22:31.646Z,1.10
2023-03-13T10:25:16.127Z,1.10
2023-03-13T10:27:53.732Z,1.00
2023-03-13T10:30:28.183Z,1.05
2023-03-13T10:33:25.250Z,1.13
2023-03-13T10:36:08.646Z,0.80
2023-03-13T10:38:52.348Z,1.00
2023-03-13T10:41:33.463Z,0.93
2023-03-13T10:44:08.545Z,1.30
2023-03-13T10:46:45.869Z,0.70
2023-03-13T10:49:19.901Z,0.90
2023-03-13T10:51:56.906Z,0.90
2023-03-13T10:54:37.460Z,1.20
2023-03-13T10:57:19.395Z,1.33
2023-03-13T10:59:49.740Z,1.40
2023-03-13T11:02:33.105Z,0.90
2023-03-13T11:05:00.105Z,1.08
2023-03-13T11:07:38.132Z,1.00
2023-03-13T11:10:13.955Z,1.63
2023-03-13T11:12:48.504Z,2.00
2023-03-13T11:15:35.301Z,1.13
2023-03-13T11:18:31.374Z,0.95
2023-03-13T11:21:12.176Z,1.02
2023-03-13T11:23:58.016Z,1.80
2023-03-13T11:26:52.431Z,2.08
2023-03-13T11:29:49.129Z,2.75
2023-03-13T11:32:32.258Z,0.90
2023-03-13T11:35:06.890Z,1.30
2023-03-13T11:37:40.618Z,1.30
2023-03-13T11:40:53.932Z,0.95
2023-03-13T11:44:02.041Z,0.98
2023-03-13T11:47:17.745Z,1.05
2023-03-13T11:50:22.171Z,0.65
2023-03-13T11:53:14.065Z,0.80
2023-03-13T11:56:21.827Z,1.00
2023-03-13T11:59:07.496Z,0.80
2023-03-13T12:01:46.491Z,0.95
2023-03-13T12:04:36.764Z,0.70
2023-03-13T12:07:29.164Z,0.85
2023-03-13T12:10:00.160Z,1.35
2023-03-13T12:13:10.252Z,0.93
2023-03-13T12:15:58.596Z,5.65
2023-03-13T12:18:45.864Z,1.60
2023-03-13T12:21:48.153Z,1.52
2023-03-13T12:24:40.483Z,2.47
2023-03-13T12:27:50.903Z,1.15
2023-03-13T12:30:48.715Z,1.30
2023-03-13T12:33:46.599Z,1.30
2023-03-13T12:36:43.674Z,1.10
2023-03-13T12:39:59.124Z,1.65
2023-03-13T12:43:00.623Z,0.95
2023-03-13T12:45:29.378Z,1.35
2023-03-13T12:48:41.515Z,1.23
2023-03-13T12:51:42.545Z,1.30
2023-03-13T12:54:50.246Z,1.38
2023-03-13T12:57:37.180Z,2.22
2023-03-13T13:00:16.418Z,1.60
2023-03-13T13:02:43.436Z,2.00
2023-03-13T13:05:23.271Z,1.88
2023-03-13T13:07:57.110Z,1.60
2023-03-13T13:10:27.461Z,1.20
2023-03-13T13:13:14.467Z,1.75
2023-03-13T13:16:19.616Z,1.40
2023-03-13T13:18:46.452Z,1.45
2023-03-13T13:21:16.446Z,1.85
2023-03-13T13:23:49.948Z,1.65
2023-03-13T13:26:29.611Z,2.22
2023-03-13T13:29:11.690Z,2.42
2023-03-13T13:31:58.832Z,2.30
2023-03-13T13:34:30.978Z,1.63
2023-03-13T13:37:20.241Z,2.28
2023-03-13T13:40:11.600Z,2.10
2023-03-13T13:42:46.909Z,1.80
2023-03-13T13:45:16.402Z,2.30
2023-03-13T13:47:47.845Z,2.15
2023-03-13T13:50:28.444Z,2.30
2023-03-13T13:53:34.673Z,2.55
2023-03-13T13:56:10.149Z,2.45
2023-03-13T13:58:44.004Z,2.30
2023-03-13T14:01:16.964Z,2.35
2023-03-13T14:03:44.490Z,2.45
2023-03-13T14:06:35.093Z,3.50
2023-03-13T14:09:48.414Z,2.90
2023-03-13T14:12:38.086Z,2.17
2023-03-13T14:15:22.396Z,2.75
2023-03-13T14:18:00.524Z,2.20
2023-03-13T14:20:52.926Z,2.30
2023-03-13T14:23:42.720Z,2.40
2023-03-13T14:26:17.683Z,2.72
2023-03-13T14:28:49.843Z,2.58
2023-03-13T14:31:33.440Z,1.95
2023-03-13T14:34:07.422Z,2.63
2023-03-13T14:36:57.147Z,4.20
2023-03-13T14:39:31.384Z,2.95
2023-03-13T14:42:05.892Z,2.63
2023-03-13T14:44:34.969Z,3.63
2023-03-13T14:47:09.197Z,2.60
2023-03-13T14:49:37.584Z,2.40
2023-03-13T14:52:24.594Z,2.17
2023-03-13T14:55:08.914Z,2.30
2023-03-13T14:57:36.876Z,3.50
2023-03-13T15:00:35.132Z,2.92
2023-03-13T15:03:17.274Z,3.25
2023-03-13T15:05:48.387Z,2.30
2023-03-13T15:08:22.395Z,5.28
2023-03-13T15:10:50.598Z,7.00
2023-03-13T15:13:31.757Z,4.40
2023-03-13T15:15:59.638Z,4.15
2023-03-13T15:18:30.857Z,6.70
2023-03-13T15:21:12.860Z,7.03
2023-03-13T15:23:49.836Z,3.75
2023-03-13T15:26:16.691Z,4.45
2023-03-13T15:28:45.893Z,3.85
2023-03-13T15:31:14.763Z,2.80
2023-03-13T15:33:43.681Z,2.38
2023-03-13T15:36:11.874Z,2.85
2023-03-13T15:38:40.102Z,3.42
2023-03-13T15:41:09.159Z,2.22
2023-03-13T15:43:36.331Z,2.38
2023-03-13T15:46:05.654Z,2.40
2023-03-13T15:48:32.654Z,2.58
2023-03-13T15:51:03.867Z,2.83
2023-03-13T15:53:35.780Z,2.08
2023-03-13T15:56:18.473Z,2.63
2023-03-13T15:58:47.519Z,2.40
2023-03-13T16:01:16.753Z,2.80
2023-03-13T16:03:43.742Z,2.58
2023-03-13T16:06:30.713Z,2.25
2023-03-13T16:09:03.236Z,2.38
2023-03-13T16:11:30.228Z,1.98
2023-03-13T16:13:59.395Z,2.72
2023-03-13T16:16:30.193Z,2.00
2023-03-13T16:19:00.881Z,2.42
2023-03-13T16:21:34.503Z,2.35
2023-03-13T16:24:03.754Z,2.97
2023-03-13T16:26:31.951Z,3.30
2023-03-13T16:28:59.551Z,3.15
2023-03-13T16:31:35.375Z,2.80
2023-03-13T16:34:07.929Z,3.55
2023-03-13T16:36:38.811Z,4.32
2023-03-13T16:39:14.770Z,3.55
2023-03-13T16:41:43.998Z,3.15
2023-03-13T16:44:17.427Z,2.92
2023-03-13T16:46:55.624Z,3.50
2023-03-13T16:49:31.051Z,2.47
2023-03-13T16:52:03.029Z,2.55
2023-03-13T16:54:32.826Z,3.10
2023-03-13T16:57:04.277Z,22.20
2023-03-13T16:59:34.040Z,8.68
2023-03-13T17:02:00.871Z,17.20
2023-03-13T17:04:30.895Z,11.50
2023-03-13T17:07:00.671Z,6.40
2023-03-13T17:09:28.856Z,4.85
2023-03-13T17:11:58.374Z,3.67
2023-03-13T17:14:25.122Z,4.00
2023-03-13T17:16:57.934Z,3.15
2023-03-13T17:19:27.380Z,4.03
2023-03-13T17:21:54.097Z,3.42
2023-03-13T17:24:20.904Z,3.88
2023-03-13T17:26:55.385Z,3.38
2023-03-13T17:29:23.634Z,3.88
2023-03-13T17:32:01.492Z,3.30
2023-03-13T17:34:31.115Z,3.33
2023-03-13T17:36:59.591Z,3.22
2023-03-13T17:39:26.314Z,4.35
2023-03-13T17:41:53.129Z,3.33
2023-03-13T17:44:19.931Z,3.20
2023-03-13T17:46:47.790Z,3.30
2023-03-13T17:49:20.246Z,3.95
2023-03-13T17:51:51.575Z,3.25
2023-03-13T17:54:18.848Z,4.45
2023-03-13T17:56:46.029Z,4.28
2023-03-13T17:59:19.456Z,4.05
2023-03-13T18:01:46.537Z,3.45
2023-03-13T18:04:13.489Z,3.90
2023-03-13T18:06:46.804Z,3.08
2023-03-13T18:09:22.076Z,3.35
2023-03-13T18:11:50.283Z,4.25
2023-03-13T18:14:17.098Z,3.33
2023-03-13T18:16:50.533Z,3.20
2023-03-13T18:19:22.688Z,4.38
2023-03-13T18:21:53.621Z,2.85
2023-03-13T18:24:28.560Z,4.40
2023-03-13T18:26:55.315Z,3.47
2023-03-13T18:29:27.924Z,3.20
2023-03-13T18:31:58.628Z,3.13
2023-03-13T18:34:34.027Z,3.30
2023-03-13T18:37:06.460Z,4.05
2023-03-13T18:39:33.518Z,4.05
2023-03-13T18:42:01.074Z,5.30
2023-03-13T18:44:27.840Z,3.83
2023-03-13T18:46:57.006Z,4.10
2023-03-13T18:49:24.704Z,3.85
2023-03-13T18:51:56.029Z,3.10
2023-03-13T18:54:24.864Z,5.07
2023-03-13T18:56:51.656Z,2.90
2023-03-13T18:59:23.498Z,4.13
2023-03-13T19:01:51.138Z,4.65
2023-03-13T19:04:19.266Z,3.03
2023-03-13T19:06:47.799Z,3.85
2023-03-13T19:09:42.272Z,3.65
2023-03-13T19:12:11.907Z,3.97
2023-03-13T19:14:38.865Z,4.43
2023-03-13T19:17:14.438Z,3.40
2023-03-13T19:19:41.259Z,3.80
2023-03-13T19:22:13.421Z,3.22
2023-03-13T19:24:40.717Z,4.28
2023-03-13T19:27:07.597Z,3.60
2023-03-13T19:29:37.521Z,5.47
2023-03-13T19:32:07.130Z,4.35
2023-03-13T19:34:33.928Z,4.68
2023-03-13T19:37:00.684Z,4.57
2023-03-13T19:39:27.594Z,9.93
2023-03-13T19:41:54.784Z,5.10
2023-03-13T19:44:24.777Z,4.38
2023-03-13T19:46:54.603Z,3.10
2023-03-13T19:49:21.587Z,4.30
2023-03-13T19:51:48.760Z,3.05
2023-03-13T19:54:15.992Z,5.10
2023-03-13T19:56:46.913Z,5.90
2023-03-13T19:59:26.781Z,3.80
2023-03-13T20:01:55.766Z,4.40
2023-03-13T20:04:27.255Z,5.57
2023-03-13T20:06:54.006Z,4.47
2023-03-13T20:09:21.403Z,3.97
2023-03-13T20:11:48.208Z,7.60
2023-03-13T20:14:18.476Z,5.00
2023-03-13T20:16:53.286Z,6.88
2023-03-13T20:19:21.395Z,7.32
2023-03-13T20:21:48.095Z,6.30
2023-03-13T20:24:16.970Z,6.00
2023-03-13T20:26:43.710Z,7.38
2023-03-13T20:29:10.414Z,4.57
2023-03-13T20:31:37.330Z,4.72
2023-03-13T20:34:04.057Z,5.43
2023-03-13T20:36:30.836Z,3.40
2023-03-13T20:39:00.803Z,4.70
2023-03-13T20:41:31.182Z,2.90
2023-03-13T20:44:00.194Z,3.50
2023-03-13T20:46:29.090Z,3.25
2023-03-13T20:48:58.452Z,3.13
2023-03-13T20:51:26.050Z,3.78
2023-03-13T20:53:52.755Z,3.40
2023-03-13T20:56:19.574Z,3.95
2023-03-13T20:58:46.404Z,2.67
2023-03-13T21:01:27.603Z,4.57
2023-03-13T21:03:57.332Z,3.25
2023-03-13T21:06:30.160Z,3.20
2023-03-13T21:08:56.969Z,3.13
2023-03-13T21:11:27.112Z,2.90
2023-03-13T21:13:56.866Z,3.00
2023-03-13T21:16:25.733Z,4.15
2023-03-13T21:18:52.799Z,2.85
2023-03-13T21:21:22.340Z,2.85
2023-03-13T21:23:51.988Z,2.35
2023-03-13T21:26:19.687Z,3.10
2023-03-13T21:28:53.947Z,3.10
2023-03-13T21:31:20.859Z,3.45
2023-03-13T21:33:48.847Z,3.42
2023-03-13T21:36:20.784Z,3.05
2023-03-13T21:38:49.666Z,3.05
2023-03-13T21:41:20.754Z,2.50
2023-03-13T21:43:49.037Z,2.95
2023-03-13T21:46:18.294Z,3.75
2023-03-13T21:48:48.279Z,2.97
2023-03-13T21:51:15.881Z,3.10
2023-03-13T21:53:46.671Z,3.75
2023-03-13T21:56:15.520Z,2.90
2023-03-13T21:58:43.764Z,2.65
2023-03-13T22:01:10.945Z,2.70
2023-03-13T22:03:38.021Z,3.10
2023-03-13T22:06:12.298Z,2.90
2023-03-13T22:08:43.019Z,2.13
2023-03-13T22:11:10.359Z,2.40
2023-03-13T22:13:42.473Z,3.10
2023-03-13T22:16:12.141Z,3.70
2023-03-13T22:18:40.646Z,2.83
2023-03-13T22:21:14.933Z,2.85
2023-03-13T22:23:41.682Z,2.92
2023-03-13T22:26:11.463Z,3.22
2023-03-13T22:28:38.927Z,3.03
2023-03-13T22:31:08.293Z,2.33
2023-03-13T22:33:37.152Z,4.40
2023-03-13T22:36:05.360Z,2.80
2023-03-13T22:38:36.077Z,2.35
2023-03-13T22:41:06.929Z,2.72
2023-03-13T22:43:34.163Z,2.88
2023-03-13T22:46:04.374Z,2.65
2023-03-13T22:48:36.178Z,3.13
2023-03-13T22:51:08.829Z,3.10
2023-03-13T22:53:38.171Z,2.97
2023-03-13T22:56:06.341Z,6.32
2023-03-13T22:58:34.263Z,3.25
2023-03-13T23:01:09.586Z,3.28
2023-03-13T23:03:36.478Z,3.38
2023-03-13T23:06:09.031Z,3.20
2023-03-13T23:08:36.402Z,4.70
2023-03-13T23:11:06.769Z,3.17
2023-03-13T23:13:36.819Z,4.18
2023-03-13T23:16:09.371Z,3.88
2023-03-13T23:18:37.374Z,3.05
2023-03-13T23:21:12.210Z,4.32
2023-03-13T23:23:40.393Z,3.47
2023-03-13T23:26:14.247Z,3.22
2023-03-13T23:28:41.362Z,3.45
2023-03-13T23:31:19.941Z,3.10
2023-03-13T23:33:48.230Z,3.22
2023-03-13T23:36:19.320Z,2.90
2023-03-13T23:38:51.200Z,2.63
2023-03-13T23:41:18.504Z,3.40
2023-03-13T23:43:45.301Z,3.30
2023-03-13T23:46:26.232Z,3.05
2023-03-13T23:48:58.401Z,3.17
2023-03-13T23:51:26.287Z,3.78
2023-03-13T23:53:53.295Z,3.45
2023-03-13T23:56:23.101Z,3.83
2023-03-13T23:58:49.820Z,2.93
